createdAt,value
2023-01-19T00:00:54.868Z,6.60
2023-01-19T00:06:58.292Z,6.43
2023-01-19T00:13:03.502Z,7.18
2023-01-19T00:19:07.046Z,7.38
2023-01-19T00:25:10.883Z,11.18
2023-01-19T00:31:15.698Z,8.00
2023-01-19T00:37:19.268Z,9.80
2023-01-19T00:43:22.709Z,7.78
2023-01-19T00:49:27.486Z,5.20
2023-01-19T00:55:30.951Z,5.85
2023-01-19T01:01:45.417Z,12.02
2023-01-19T01:07:51.434Z,5.40
2023-01-19T01:13:54.897Z,8.02
2023-01-19T01:19:59.015Z,6.88
2023-01-19T01:26:03.810Z,12.13
2023-01-19T01:32:07.294Z,8.50
2023-01-19T01:38:11.185Z,7.05
2023-01-19T01:44:33.383Z,10.88
2023-01-19T01:51:00.637Z,9.07
2023-01-19T01:57:05.636Z,6.72
2023-01-19T02:03:09.178Z,10.00
2023-01-19T02:09:31.521Z,7.70
2023-01-19T02:15:35.030Z,7.25
2023-01-19T02:21:40.499Z,6.05
2023-01-19T02:27:45.250Z,5.35
2023-01-19T02:33:48.942Z,7.00
2023-01-19T02:39:54.261Z,4.00
2023-01-19T02:45:59.077Z,6.75
2023-01-19T02:52:02.551Z,6.53
2023-01-19T02:58:08.136Z,8.80
2023-01-19T03:04:16.057Z,9.73
2023-01-19T03:10:22.503Z,8.88
2023-01-19T03:16:27.431Z,8.10
2023-01-19T03:22:33.009Z,5.25
2023-01-19T03:28:37.502Z,10.10
2023-01-19T03:34:41.633Z,9.65
2023-01-19T03:40:47.611Z,11.35
2023-01-19T03:46:51.433Z,6.90
2023-01-19T03:53:07.400Z,9.98
2023-01-19T03:59:12.275Z,7.70
2023-01-19T04:05:15.744Z,11.65
2023-01-19T04:11:19.216Z,8.93
2023-01-19T04:17:23.953Z,7.90
2023-01-19T04:23:27.354Z,8.02
2023-01-19T04:29:30.707Z,6.15
2023-01-19T04:35:35.773Z,9.63
2023-01-19T04:41:39.122Z,11.77
2023-01-19T04:47:43.272Z,12.05
2023-01-19T04:53:48.035Z,9.63
2023-01-19T04:59:51.455Z,13.23
2023-01-19T05:05:54.883Z,11.70
2023-01-19T05:11:59.676Z,11.45
2023-01-19T05:18:03.089Z,12.32
2023-01-19T05:24:06.608Z,11.13
2023-01-19T05:30:13.347Z,9.93
2023-01-19T05:36:16.727Z,8.57
2023-01-19T05:42:20.176Z,12.90
2023-01-19T05:48:24.944Z,14.77
2023-01-19T05:54:28.646Z,12.50
2023-01-19T06:00:32.080Z,13.10
2023-01-19T06:06:36.854Z,11.95
2023-01-19T06:12:42.224Z,8.60
2023-01-19T06:18:45.667Z,11.57
2023-01-19T06:24:50.550Z,11.68
2023-01-19T06:30:55.374Z,8.32
2023-01-19T06:36:59.012Z,13.75
2023-01-19T06:43:04.025Z,11.15
2023-01-19T06:49:07.659Z,11.07
2023-01-19T06:55:11.969Z,11.82
2023-01-19T07:01:16.971Z,10.18
2023-01-19T07:07:20.881Z,8.77
2023-01-19T07:13:25.299Z,13.65
2023-01-19T07:19:30.190Z,10.57
2023-01-19T07:25:33.656Z,12.23
2023-01-19T07:31:37.213Z,15.32
2023-01-19T07:37:42.142Z,12.63
2023-01-19T07:43:45.524Z,18.30
2023-01-19T07:49:48.923Z,13.77
2023-01-19T07:55:57.630Z,12.27
2023-01-19T08:02:01.347Z,13.88
2023-01-19T08:08:05.588Z,10.98
2023-01-19T08:14:10.778Z,10.38
2023-01-19T08:20:14.842Z,12.55
2023-01-19T08:26:23.868Z,14.13
2023-01-19T08:32:28.720Z,12.93
2023-01-19T08:38:32.134Z,20.40
2023-01-19T08:44:36.622Z,12.98
2023-01-19T08:50:44.221Z,18.10
2023-01-19T08:56:47.875Z,11.68
2023-01-19T09:02:51.403Z,12.77
2023-01-19T09:08:57.545Z,14.50
2023-01-19T09:15:01.207Z,8.65
2023-01-19T09:21:04.983Z,13.55
2023-01-19T09:27:09.829Z,13.90
2023-01-19T09:33:13.992Z,16.17
2023-01-19T09:39:17.529Z,12.80
2023-01-19T09:45:27.861Z,11.45
2023-01-19T09:51:33.940Z,11.07
2023-01-19T09:57:37.586Z,15.23
2023-01-19T10:03:43.255Z,9.25
2023-01-19T10:09:50.789Z,12.05
2023-01-19T10:15:58.177Z,13.70
2023-01-19T10:22:20.359Z,9.80
2023-01-19T10:28:25.918Z,12.48
2023-01-19T10:34:29.606Z,11.43
2023-01-19T10:40:35.803Z,13.27
2023-01-19T10:46:40.865Z,10.73
2023-01-19T10:52:44.793Z,8.75
2023-01-19T10:58:49.610Z,11.15
2023-01-19T11:04:54.117Z,11.45
2023-01-19T11:10:59.712Z,14.95
2023-01-19T11:17:04.529Z,13.23
2023-01-19T11:23:09.317Z,12.13
2023-01-19T11:29:21.036Z,11.13
2023-01-19T11:35:34.759Z,12.23
2023-01-19T11:41:38.974Z,8.15
2023-01-19T11:47:44.567Z,8.40
2023-01-19T11:53:53.311Z,6.30
2023-01-19T11:59:58.687Z,10.10
2023-01-19T12:06:03.491Z,9.82
2023-01-19T12:12:09.585Z,11.68
2023-01-19T12:18:15.861Z,13.00
2023-01-19T12:24:24.874Z,12.02
2023-01-19T12:30:31.452Z,15.88
2023-01-19T12:36:38.744Z,11.07
2023-01-19T12:42:46.192Z,12.32
2023-01-19T12:48:50.984Z,9.13
2023-01-19T12:54:57.289Z,11.95
2023-01-19T13:01:18.421Z,10.00
2023-01-19T13:07:23.244Z,9.88
2023-01-19T13:13:27.680Z,12.05
2023-01-19T13:19:40.031Z,10.85
2023-01-19T13:25:46.015Z,13.98
2023-01-19T13:31:50.365Z,8.25
2023-01-19T13:37:53.844Z,14.98
2023-01-19T13:44:01.082Z,11.98
2023-01-19T13:50:04.751Z,8.60
2023-01-19T13:56:10.406Z,15.82
2023-01-19T14:02:15.493Z,10.57
2023-01-19T14:08:19.367Z,11.07
2023-01-19T14:14:26.483Z,9.20
2023-01-19T14:20:36.753Z,12.80
2023-01-19T14:26:49.566Z,12.27
2023-01-19T14:32:53.920Z,11.13
2023-01-19T14:39:01.280Z,10.95
2023-01-19T14:45:06.410Z,8.45
2023-01-19T14:51:10.037Z,12.30
2023-01-19T14:57:15.168Z,10.70
2023-01-19T15:03:18.704Z,9.98
2023-01-19T15:09:22.294Z,9.13
2023-01-19T15:15:31.208Z,10.55
2023-01-19T15:21:34.733Z,6.75
2023-01-19T15:27:38.141Z,15.68
2023-01-19T15:33:42.880Z,15.73
2023-01-19T15:39:46.437Z,10.82
2023-01-19T15:45:51.283Z,10.45
2023-01-19T15:51:56.172Z,14.23
2023-01-19T15:58:02.274Z,14.02
2023-01-19T16:04:07.353Z,11.43
2023-01-19T16:10:13.170Z,15.38
2023-01-19T16:16:17.693Z,13.20
2023-01-19T16:22:21.131Z,13.82
2023-01-19T16:28:25.944Z,16.15
2023-01-19T16:34:29.658Z,14.43
2023-01-19T16:40:33.084Z,14.57
2023-01-19T16:46:38.837Z,18.25
2023-01-19T16:52:42.427Z,18.17
2023-01-19T16:58:45.920Z,18.10
2023-01-19T17:04:50.667Z,24.38
2023-01-19T17:10:55.825Z,16.70
2023-01-19T17:17:00.653Z,20.52
2023-01-19T17:23:05.504Z,21.20
2023-01-19T17:29:10.245Z,26.70
2023-01-19T17:35:13.666Z,25.98
2023-01-19T17:41:19.145Z,28.98
2023-01-19T17:47:25.939Z,29.95
2023-01-19T17:53:29.793Z,32.60
2023-01-19T17:59:34.761Z,31.45
2023-01-19T18:05:38.169Z,34.75
2023-01-19T18:11:42.785Z,38.00
2023-01-19T18:17:47.636Z,43.90
2023-01-19T18:23:51.591Z,42.50
2023-01-19T18:29:54.951Z,37.17
2023-01-19T18:35:59.816Z,15.10
2023-01-19T18:42:03.851Z,18.30
2023-01-19T18:48:07.751Z,12.68
2023-01-19T18:54:12.717Z,13.75
2023-01-19T19:00:16.472Z,4.90
2023-01-19T19:06:20.943Z,4.28
2023-01-19T19:12:25.856Z,4.65
2023-01-19T19:18:29.275Z,6.38
2023-01-19T19:24:33.523Z,10.48
2023-01-19T19:30:39.100Z,4.22
2023-01-19T19:36:42.885Z,3.13
2023-01-19T19:42:46.302Z,4.13
2023-01-19T19:48:51.195Z,11.30
2023-01-19T19:54:55.253Z,8.20
2023-01-19T20:01:03.040Z,7.47
2023-01-19T20:07:07.963Z,5.72
2023-01-19T20:13:28.892Z,9.50
2023-01-19T20:19:32.719Z,15.95
2023-01-19T20:25:41.026Z,17.00
2023-01-19T20:31:46.244Z,27.50
2023-01-19T20:37:49.672Z,26.95
2023-01-19T20:43:54.456Z,27.50
2023-01-19T20:49:57.935Z,29.48
2023-01-19T20:56:06.068Z,34.85
2023-01-19T21:02:14.242Z,34.03
2023-01-19T21:08:18.271Z,39.72
2023-01-19T21:14:21.774Z,37.65
2023-01-19T21:20:26.540Z,31.88
2023-01-19T21:26:30.970Z,32.97
2023-01-19T21:32:34.576Z,26.90
2023-01-19T21:38:40.757Z,28.60
2023-01-19T21:44:44.180Z,30.70
2023-01-19T21:50:47.605Z,32.08
2023-01-19T21:56:52.826Z,34.67
2023-01-19T22:03:03.806Z,31.95
2023-01-19T22:09:08.107Z,27.95
2023-01-19T22:15:13.453Z,27.85
2023-01-19T22:21:17.867Z,25.63
2023-01-19T22:27:21.507Z,25.83
2023-01-19T22:33:26.347Z,26.35
2023-01-19T22:39:29.916Z,22.20
2023-01-19T22:45:33.300Z,20.13
2023-01-19T22:51:38.146Z,21.63
2023-01-19T22:57:41.562Z,21.63
2023-01-19T23:03:44.974Z,20.10
2023-01-19T23:09:49.734Z,20.90
2023-01-19T23:15:53.235Z,20.85
2023-01-19T23:21:56.640Z,22.67
2023-01-19T23:28:01.376Z,26.85
2023-01-19T23:34:05.637Z,20.23
2023-01-19T23:40:09.824Z,19.20
2023-01-19T23:46:15.404Z,19.77
2023-01-19T23:52:18.924Z,20.77
2023-01-19T23:58:22.328Z,22.50
